Time;durP1;ratioP1;P1;durP2;ratioP2;P2;SDS_P1;SDS_P2;PMS_P1;PMS_P2;Temp;Humidity;BMP_temperature;BMP_pressure;BME280_temperature;BME280_humidity;BME280_pressure;Samples;Min_cycle;Max_cycle;Signal;HPM_P1;HPM_P2
2023/05/06 00:00:32;;;;;;;4.18;1.80;;;13.60;73.40;;;;;;4969754;28;20756;-76
2023/05/06 00:03:00;;;;;;;3.50;1.35;;;13.50;73.40;;;;;;4965087;28;20824;-77
2023/05/06 00:05:27;;;;;;;3.65;1.48;;;13.50;73.50;;;;;;4950861;28;20156;-76
2023/05/06 00:07:54;;;;;;;3.83;1.90;;;13.50;73.40;;;;;;4951111;28;20150;-76
2023/05/06 00:10:21;;;;;;;4.00;1.90;;;13.50;73.20;;;;;;4951481;28;20185;-75
2023/05/06 00:12:48;;;;;;;4.55;2.15;;;13.50;73.20;;;;;;4968908;28;20342;-77
2023/05/06 00:15:15;;;;;;;4.85;1.67;;;13.40;73.40;;;;;;4952123;28;20051;-77
2023/05/06 00:17:44;;;;;;;3.65;1.60;;;13.30;73.20;;;;;;4957046;28;20054;-77
2023/05/06 00:20:11;;;;;;;3.38;1.30;;;13.30;73.10;;;;;;4957161;28;20051;-77
2023/05/06 00:22:38;;;;;;;3.80;1.83;;;13.30;73.20;;;;;;4974385;28;20126;-77
2023/05/06 00:25:34;;;;;;;8.07;1.73;;;13.30;73.10;;;;;;4960688;28;20243;-76
2023/05/06 00:28:01;;;;;;;8.90;2.42;;;13.30;73.00;;;;;;4958491;28;20055;-77
2023/05/06 00:30:28;;;;;;;3.90;1.40;;;13.30;73.00;;;;;;4957522;28;20055;-76
2023/05/06 00:32:57;;;;;;;6.57;1.58;;;13.20;73.00;;;;;;4957300;28;20074;-77
2023/05/06 00:35:24;;;;;;;6.20;1.50;;;13.10;73.20;;;;;;4958007;28;20061;-77
2023/05/06 00:37:57;;;;;;;3.83;1.58;;;13.10;73.10;;;;;;4956909;28;20888;-76
2023/05/06 00:40:24;;;;;;;4.20;1.58;;;13.10;73.10;;;;;;4958341;28;20741;-76
2023/05/06 00:42:51;;;;;;;3.33;1.55;;;13.00;73.00;;;;;;4958240;28;20059;-76
2023/05/06 00:45:18;;;;;;;4.50;2.00;;;13.00;73.00;;;;;;4958036;28;20047;-77
2023/05/06 00:47:45;;;;;;;5.40;1.77;;;13.00;73.00;;;;;;4957748;28;20573;-77
2023/05/06 00:50:13;;;;;;;5.03;2.03;;;13.00;73.00;;;;;;4957932;28;21401;-77
2023/05/06 00:53:07;;;;;;;4.28;1.92;;;12.90;73.00;;;;;;4957484;28;20101;-77
2023/05/06 00:55:34;;;;;;;3.85;1.70;;;12.90;72.90;;;;;;4972650;28;20047;-76
2023/05/06 00:58:02;;;;;;;4.63;1.27;;;12.90;73.20;;;;;;4941455;28;20047;-76
2023/05/06 01:00:29;;;;;;;4.20;1.20;;;12.90;73.20;;;;;;4957667;28;20059;-76
2023/05/06 01:02:56;;;;;;;4.00;1.60;;;12.90;73.20;;;;;;4957794;28;20407;-77
2023/05/06 01:05:30;;;;;;;3.80;1.40;;;12.90;73.20;;;;;;4957760;28;20127;-77
2023/05/06 01:08:06;;;;;;;3.38;1.20;;;12.90;73.50;;;;;;4957693;28;20070;-77
2023/05/06 01:10:42;;;;;;;4.13;1.80;;;12.80;73.70;;;;;;4975588;28;20059;-77
2023/05/06 01:13:14;;;;;;;3.57;1.80;;;12.80;73.70;;;;;;4940248;28;20050;-76
2023/05/06 01:15:45;;;;;;;4.63;2.10;;;12.80;73.60;;;;;;4957882;28;20395;-77
2023/05/06 01:18:16;;;;;;;4.93;2.20;;;12.80;73.60;;;;;;4957740;28;20142;-76
2023/05/06 01:20:48;;;;;;;5.07;2.53;;;12.80;73.40;;;;;;4953740;28;20079;-77
2023/05/06 01:23:16;;;;;;;6.35;2.65;;;12.70;73.40;;;;;;4970820;28;20643;-77
2023/05/06 01:25:44;;;;;;;6.67;2.70;;;12.70;73.40;;;;;;4973666;28;20134;-76
2023/05/06 01:28:12;;;;;;;6.03;3.10;;;12.70;73.60;;;;;;4953653;28;20286;-77
2023/05/06 01:30:49;;;;;;;7.05;3.60;;;12.70;73.70;;;;;;4952998;28;20187;-76
2023/05/06 01:33:23;;;;;;;6.53;3.78;;;12.70;73.60;;;;;;4938399;28;20047;-77
2023/05/06 01:35:59;;;;;;;5.30;2.30;;;12.60;73.30;;;;;;4970329;28;20064;-77
2023/05/06 01:38:34;;;;;;;5.07;2.20;;;12.60;73.20;;;;;;4953861;28;20058;-77
2023/05/06 01:41:02;;;;;;;4.88;2.30;;;12.60;73.40;;;;;;4951416;28;20343;-77
2023/05/06 01:43:37;;;;;;;5.32;2.70;;;12.60;73.50;;;;;;4935045;28;20705;-77
2023/05/06 01:46:06;;;;;;;5.38;1.90;;;12.50;73.60;;;;;;4966164;28;20154;-77
2023/05/06 01:48:36;;;;;;;4.10;1.80;;;12.50;73.60;;;;;;4961639;28;20659;-77
2023/05/06 01:51:03;;;;;;;5.83;2.33;;;12.50;73.70;;;;;;4956677;28;20552;-76
2023/05/06 01:53:31;;;;;;;6.75;3.08;;;12.50;73.70;;;;;;4950525;28;20287;-77
2023/05/06 01:55:58;;;;;;;6.32;3.40;;;12.50;73.60;;;;;;4946736;28;20051;-76
2023/05/06 01:58:25;;;;;;;6.57;3.05;;;12.50;73.60;;;;;;4953650;28;20059;-77
2023/05/06 02:00:52;;;;;;;5.57;3.10;;;12.50;73.40;;;;;;4953388;28;20051;-76
2023/05/06 02:03:19;;;;;;;9.20;3.33;;;12.50;73.30;;;;;;4953749;28;20614;-77
2023/05/06 02:05:46;;;;;;;6.35;3.03;;;12.50;73.30;;;;;;4954470;28;20269;-77
2023/05/06 02:08:13;;;;;;;7.03;2.83;;;12.50;73.50;;;;;;4950617;28;20063;-77
2023/05/06 02:10:41;;;;;;;5.32;2.60;;;12.50;73.60;;;;;;4950264;28;20507;-76
2023/05/06 02:13:11;;;;;;;4.55;2.20;;;12.40;73.80;;;;;;4952835;28;20079;-77
2023/05/06 02:15:38;;;;;;;4.37;1.90;;;12.40;73.60;;;;;;4971256;28;20060;-77
2023/05/06 02:18:07;;;;;;;3.97;2.10;;;12.30;73.50;;;;;;4953306;28;20283;-76
2023/05/06 02:20:35;;;;;;;4.68;2.50;;;12.30;73.60;;;;;;4953577;28;20051;-76
2023/05/06 02:23:02;;;;;;;4.80;2.60;;;12.30;73.80;;;;;;4952502;28;20052;-76
2023/05/06 02:25:30;;;;;;;4.70;2.30;;;12.30;73.70;;;;;;4969603;28;20150;-76
2023/05/06 02:27:58;;;;;;;4.57;2.73;;;12.30;74.00;;;;;;4970805;28;20107;-76
2023/05/06 02:30:25;;;;;;;4.47;2.40;;;12.20;74.00;;;;;;4958273;28;20762;-76
2023/05/06 02:32:52;;;;;;;3.88;2.35;;;12.20;73.70;;;;;;4953163;28;20513;-76
2023/05/06 02:35:20;;;;;;;4.03;2.08;;;12.20;73.70;;;;;;4969491;28;20055;-77
2023/05/06 02:37:46;;;;;;;4.38;2.00;;;12.20;74.00;;;;;;4939543;28;20111;-76
2023/05/06 02:40:14;;;;;;;3.77;1.90;;;12.20;73.80;;;;;;4947244;28;20059;-76
2023/05/06 02:42:40;;;;;;;4.00;2.10;;;12.20;73.90;;;;;;4953204;28;20753;-76
2023/05/06 02:45:10;;;;;;;4.32;2.00;;;12.10;73.80;;;;;;4969622;28;20051;-77
2023/05/06 02:47:37;;;;;;;4.22;2.33;;;12.10;73.80;;;;;;4953224;28;20051;-76
2023/05/06 02:50:04;;;;;;;4.63;2.50;;;12.10;73.90;;;;;;4969048;28;20142;-77
2023/05/06 02:52:33;;;;;;;5.67;3.20;;;12.10;73.70;;;;;;4952312;28;20057;-77
2023/05/06 02:55:01;;;;;;;4.50;3.13;;;12.10;73.60;;;;;;4952857;28;20272;-76
2023/05/06 02:57:28;;;;;;;6.82;3.10;;;12.10;73.70;;;;;;4960436;28;20466;-77
2023/05/06 02:59:55;;;;;;;5.07;3.13;;;12.10;73.90;;;;;;4933356;28;20385;-76
2023/05/06 03:02:23;;;;;;;6.65;4.20;;;12.00;74.00;;;;;;4936767;28;20581;-76
2023/05/06 03:04:50;;;;;;;6.97;4.43;;;12.00;74.20;;;;;;4952152;28;20573;-76
2023/05/06 03:07:17;;;;;;;5.65;3.10;;;11.90;74.30;;;;;;4952760;28;20275;-76
2023/05/06 03:09:44;;;;;;;10.98;3.75;;;11.90;74.40;;;;;;4952949;28;20043;-77
2023/05/06 03:12:11;;;;;;;6.07;3.00;;;11.90;74.40;;;;;;4949475;28;20048;-76
2023/05/06 03:14:39;;;;;;;29.13;3.70;;;11.90;74.30;;;;;;4951753;28;20048;-76
2023/05/06 03:17:06;;;;;;;5.83;3.53;;;11.90;74.40;;;;;;4952308;28;20047;-76
2023/05/06 03:19:37;;;;;;;6.20;3.80;;;11.80;74.50;;;;;;4952366;28;20264;-75
2023/05/06 03:22:06;;;;;;;6.20;3.80;;;11.80;74.50;;;;;;4968363;28;20062;-76
2023/05/06 03:24:35;;;;;;;5.97;3.20;;;11.70;74.60;;;;;;4952419;28;20055;-76
2023/05/06 03:27:04;;;;;;;7.25;3.40;;;11.70;74.50;;;;;;4968624;28;20516;-77
2023/05/06 03:29:32;;;;;;;7.27;3.60;;;11.70;74.40;;;;;;4952335;28;20662;-76
2023/05/06 03:32:02;;;;;;;7.05;4.22;;;11.70;74.30;;;;;;4950543;28;20291;-76
2023/05/06 03:34:31;;;;;;;14.10;4.20;;;11.70;74.50;;;;;;4968491;28;20071;-76
2023/05/06 03:37:00;;;;;;;7.75;4.03;;;11.70;74.50;;;;;;4952239;28;20381;-77
2023/05/06 03:39:28;;;;;;;7.07;4.00;;;11.60;74.50;;;;;;4957650;28;20055;-77
2023/05/06 03:41:56;;;;;;;7.50;4.30;;;11.60;74.40;;;;;;4950632;28;20063;-76
2023/05/06 03:44:24;;;;;;;11.15;4.93;;;11.60;74.60;;;;;;4950173;28;20743;-76
2023/05/06 03:46:51;;;;;;;10.50;4.18;;;11.50;74.70;;;;;;4948798;28;20458;-76
2023/05/06 03:49:19;;;;;;;7.03;3.83;;;11.50;74.60;;;;;;4967083;28;20055;-77
2023/05/06 03:51:47;;;;;;;13.48;4.18;;;11.50;74.40;;;;;;4954811;28;20055;-76
2023/05/06 03:54:16;;;;;;;7.00;3.80;;;11.50;74.40;;;;;;4951710;28;20052;-76
2023/05/06 03:56:43;;;;;;;8.65;3.72;;;11.50;74.50;;;;;;4948339;28;20287;-77
2023/05/06 03:59:10;;;;;;;7.82;4.22;;;11.50;74.60;;;;;;4948796;28;20055;-76
2023/05/06 04:01:37;;;;;;;8.60;3.85;;;11.50;74.60;;;;;;4946167;28;20507;-77
2023/05/06 04:04:04;;;;;;;7.95;3.38;;;11.50;74.50;;;;;;4950204;28;20091;-76
2023/05/06 04:06:31;;;;;;;9.50;3.53;;;11.40;74.40;;;;;;4951745;28;20047;-76
2023/05/06 04:08:58;;;;;;;5.97;3.58;;;11.40;74.50;;;;;;4967871;28;20326;-76
2023/05/06 04:11:27;;;;;;;5.55;3.30;;;11.40;74.40;;;;;;4951343;28;20437;-76
2023/05/06 04:13:54;;;;;;;5.70;3.10;;;11.40;74.30;;;;;;4957382;28;20094;-77
2023/05/06 04:16:24;;;;;;;6.03;3.63;;;11.40;74.40;;;;;;4948103;28;20067;-77
2023/05/06 04:18:51;;;;;;;7.97;3.50;;;11.40;74.50;;;;;;4948455;28;20056;-76
2023/05/06 04:21:18;;;;;;;11.88;3.38;;;11.30;74.50;;;;;;4966022;28;20259;-76
2023/05/06 04:23:53;;;;;;;5.05;2.83;;;11.30;74.50;;;;;;4979754;28;20158;-76
2023/05/06 04:26:24;;;;;;;5.63;2.80;;;11.30;74.60;;;;;;4950871;28;20052;-76
2023/05/06 04:28:52;;;;;;;4.38;2.90;;;11.30;74.40;;;;;;4951713;28;20055;-76
2023/05/06 04:31:19;;;;;;;4.97;2.93;;;11.30;74.10;;;;;;4952042;28;20048;-76
2023/05/06 04:33:49;;;;;;;4.82;3.20;;;11.20;74.10;;;;;;4964324;28;20260;-77
2023/05/06 04:36:20;;;;;;;5.93;4.18;;;11.10;74.20;;;;;;4951532;28;20051;-77
2023/05/06 04:39:07;;;;;;;5.82;3.83;;;11.10;74.00;;;;;;4951687;28;20060;-76
2023/05/06 04:41:35;;;;;;;6.65;4.30;;;11.10;73.90;;;;;;4964388;28;20052;-77
2023/05/06 04:44:03;;;;;;;8.87;4.80;;;11.10;74.10;;;;;;4960290;28;20146;-77
2023/05/06 04:46:32;;;;;;;9.35;4.85;;;11.10;74.10;;;;;;4948571;28;20374;-77
2023/05/06 04:49:00;;;;;;;8.82;5.63;;;11.10;74.30;;;;;;4951656;28;20058;-77
2023/05/06 04:51:27;;;;;;;8.27;5.22;;;11.10;74.50;;;;;;4934983;28;20173;-76
2023/05/06 04:53:54;;;;;;;8.85;5.43;;;11.10;74.50;;;;;;4951716;28;20043;-76
2023/05/06 04:56:21;;;;;;;7.23;5.07;;;11.10;74.60;;;;;;4950757;28;20115;-76
2023/05/06 04:58:49;;;;;;;9.35;5.32;;;11.10;74.60;;;;;;4962938;28;20542;-77
2023/05/06 05:01:19;;;;;;;8.13;5.22;;;11.10;74.80;;;;;;4950663;28;20047;-77
2023/05/06 05:03:47;;;;;;;7.72;5.30;;;11.10;75.10;;;;;;4954202;28;20043;-76
2023/05/06 05:06:14;;;;;;;9.35;5.47;;;11.10;76.00;;;;;;4954950;28;20134;-76
2023/05/06 05:08:41;;;;;;;11.50;5.73;;;11.10;76.20;;;;;;4970351;28;20149;-76
2023/05/06 05:11:09;;;;;;;8.40;6.10;;;11.10;76.90;;;;;;4954676;28;20271;-77
2023/05/06 05:13:37;;;;;;;10.68;6.45;;;11.10;77.10;;;;;;4970041;28;20047;-76
2023/05/06 05:16:06;;;;;;;11.80;7.00;;;11.10;77.10;;;;;;4970395;28;20588;-76
2023/05/06 05:18:37;;;;;;;11.35;6.68;;;11.10;77.50;;;;;;4954100;28;20505;-77
2023/05/06 05:21:12;;;;;;;9.90;6.40;;;11.10;77.80;;;;;;4953992;28;20078;-77
2023/05/06 05:23:39;;;;;;;9.00;5.90;;;11.10;78.30;;;;;;4953866;28;20335;-76
2023/05/06 05:26:06;;;;;;;10.13;6.45;;;11.10;78.50;;;;;;4954642;28;20052;-76
2023/05/06 05:28:33;;;;;;;9.35;6.03;;;11.10;79.00;;;;;;4970436;28;20063;-76
2023/05/06 05:31:03;;;;;;;9.13;6.25;;;11.10;79.20;;;;;;4969473;28;20952;-76
2023/05/06 05:33:33;;;;;;;8.77;6.43;;;11.10;79.40;;;;;;4953828;28;21131;-76
2023/05/06 05:36:03;;;;;;;11.73;6.50;;;11.10;79.60;;;;;;4970283;28;20849;-77
2023/05/06 05:38:31;;;;;;;10.30;6.45;;;11.10;79.70;;;;;;4950896;28;20073;-77
2023/05/06 05:40:59;;;;;;;9.88;6.93;;;11.20;80.10;;;;;;4968509;28;20528;-76
2023/05/06 05:43:27;;;;;;;10.70;6.65;;;11.20;80.10;;;;;;4954258;28;20043;-77
2023/05/06 05:45:55;;;;;;;9.90;6.60;;;11.30;80.70;;;;;;4954138;28;20071;-77
2023/05/06 05:48:22;;;;;;;10.13;6.60;;;11.30;80.90;;;;;;4970112;28;20275;-76
2023/05/06 05:50:50;;;;;;;10.52;7.53;;;11.30;81.20;;;;;;4969801;28;20577;-76
2023/05/06 05:53:19;;;;;;;11.07;7.70;;;11.30;81.10;;;;;;4953743;28;20079;-76
2023/05/06 05:55:46;;;;;;;11.68;7.78;;;11.40;81.20;;;;;;4953911;28;20161;-76
2023/05/06 05:58:14;;;;;;;12.93;8.60;;;11.40;81.20;;;;;;4953512;28;20573;-76
2023/05/06 06:00:43;;;;;;;12.77;8.40;;;11.40;81.40;;;;;;4953838;28;20289;-77
2023/05/06 06:03:14;;;;;;;12.80;8.25;;;11.40;81.50;;;;;;4969800;28;20610;-76
2023/05/06 06:05:41;;;;;;;14.07;9.05;;;11.50;81.00;;;;;;4936499;28;20804;-77
2023/05/06 06:08:09;;;;;;;13.38;8.95;;;11.50;81.30;;;;;;4953675;28;20614;-77
2023/05/06 06:10:39;;;;;;;15.60;10.30;;;11.50;81.60;;;;;;4953699;28;20752;-77
2023/05/06 06:13:13;;;;;;;15.55;10.05;;;11.50;81.90;;;;;;4937048;28;20259;-77
2023/05/06 06:15:40;;;;;;;14.55;9.55;;;11.60;82.10;;;;;;4954346;28;20055;-77
2023/05/06 06:18:07;;;;;;;15.23;10.25;;;11.70;82.30;;;;;;4966309;28;20060;-77
2023/05/06 06:20:35;;;;;;;14.90;9.48;;;11.70;82.50;;;;;;4954983;28;20066;-77
2023/05/06 06:23:02;;;;;;;14.63;9.17;;;11.70;82.60;;;;;;4953279;28;20533;-77
2023/05/06 06:25:30;;;;;;;13.38;9.40;;;11.90;82.70;;;;;;4953615;28;20272;-77
2023/05/06 06:27:58;;;;;;;13.00;9.18;;;11.90;82.80;;;;;;4970127;28;20063;-77
2023/05/06 06:30:25;;;;;;;14.55;9.32;;;11.90;82.80;;;;;;5005006;23;20098;-78
2023/05/06 06:32:54;;;;;;;12.82;8.68;;;11.90;82.90;;;;;;5013731;28;20091;-77
2023/05/06 06:35:22;;;;;;;14.03;9.60;;;12.00;83.00;;;;;;5030919;28;20045;-76
2023/05/06 06:37:49;;;;;;;13.65;8.95;;;12.00;83.00;;;;;;5014948;28;20281;-77
2023/05/06 06:40:17;;;;;;;12.77;9.18;;;12.10;83.10;;;;;;5049447;28;20061;-77
2023/05/06 06:42:44;;;;;;;14.60;9.55;;;12.10;83.30;;;;;;5048064;28;20053;-77
2023/05/06 06:45:39;;;;;;;13.15;9.02;;;12.20;83.40;;;;;;5014066;28;20128;-77
2023/05/06 06:48:06;;;;;;;14.77;8.87;;;12.20;83.60;;;;;;5030921;28;20087;-76
2023/05/06 06:50:33;;;;;;;13.70;9.23;;;12.20;83.60;;;;;;5031446;28;20263;-77
2023/05/06 06:53:00;;;;;;;15.13;9.35;;;12.30;83.60;;;;;;5049162;28;20049;-77
2023/05/06 06:55:27;;;;;;;13.95;9.15;;;12.30;83.60;;;;;;5030722;28;20563;-77
2023/05/06 06:57:54;;;;;;;13.98;9.32;;;12.30;83.70;;;;;;5047924;28;20051;-76
2023/05/06 07:00:21;;;;;;;15.30;9.77;;;12.40;83.40;;;;;;5039146;28;20045;-77
2023/05/06 07:02:50;;;;;;;15.27;9.48;;;12.40;83.70;;;;;;5029778;28;20268;-77
2023/05/06 07:05:17;;;;;;;13.95;9.27;;;12.50;83.80;;;;;;5043748;28;20053;-77
2023/05/06 07:07:45;;;;;;;13.30;8.95;;;12.50;83.80;;;;;;5026811;28;20049;-77
2023/05/06 07:10:12;;;;;;;14.93;8.70;;;12.50;84.00;;;;;;5026146;28;20164;-77
2023/05/06 07:12:39;;;;;;;14.03;9.23;;;12.50;84.00;;;;;;5028803;28;20542;-77
2023/05/06 07:15:07;;;;;;;13.98;9.02;;;12.50;84.00;;;;;;5026476;28;20322;-77
2023/05/06 07:17:34;;;;;;;13.90;9.05;;;12.60;84.00;;;;;;5025603;28;20050;-77
2023/05/06 07:20:03;;;;;;;15.50;9.40;;;12.60;83.90;;;;;;5027936;28;20049;-77
2023/05/06 07:22:30;;;;;;;12.75;8.70;;;12.70;83.70;;;;;;5030996;28;20180;-76
2023/05/06 07:24:57;;;;;;;13.07;9.03;;;12.70;83.80;;;;;;5022689;28;20099;-77
2023/05/06 07:27:29;;;;;;;13.50;8.77;;;12.70;83.90;;;;;;5056995;23;20273;-77
2023/05/06 07:29:56;;;;;;;14.10;9.07;;;12.80;84.10;;;;;;5007004;28;20515;-77
2023/05/06 07:32:23;;;;;;;14.95;9.38;;;12.80;83.50;;;;;;5007416;28;20049;-77
2023/05/06 07:34:50;;;;;;;16.63;10.02;;;12.80;83.50;;;;;;5019134;28;20050;-77
2023/05/06 07:37:18;;;;;;;15.47;10.17;;;12.80;83.70;;;;;;5024399;28;20056;-77
2023/05/06 07:39:45;;;;;;;17.27;10.23;;;12.90;84.00;;;;;;5007973;28;20861;-78
2023/05/06 07:42:12;;;;;;;16.52;10.18;;;12.90;84.10;;;;;;5008593;28;20540;-78
2023/05/06 07:44:39;;;;;;;16.30;10.38;;;13.00;84.50;;;;;;5007396;28;20112;-78
2023/05/06 07:47:06;;;;;;;15.00;9.30;;;13.00;84.40;;;;;;5007238;28;20060;-78
2023/05/06 07:49:33;;;;;;;14.93;9.40;;;13.10;84.50;;;;;;5009588;28;20058;-78
2023/05/06 07:52:02;;;;;;;18.55;9.95;;;13.10;84.40;;;;;;5024566;28;20296;-77
2023/05/06 07:54:31;;;;;;;16.73;10.73;;;13.10;84.60;;;;;;5008123;28;20058;-78
2023/05/06 07:56:58;;;;;;;16.95;9.85;;;13.20;84.60;;;;;;5005725;28;20057;-77
2023/05/06 07:59:25;;;;;;;16.05;9.90;;;13.30;84.70;;;;;;5025333;28;20488;-77
2023/05/06 08:01:52;;;;;;;16.43;9.73;;;13.30;84.70;;;;;;5006679;28;20555;-78
2023/05/06 08:04:19;;;;;;;16.80;9.73;;;13.30;84.90;;;;;;5009306;28;20355;-77
2023/05/06 08:06:46;;;;;;;14.88;8.93;;;13.50;84.80;;;;;;5003821;28;20081;-78
2023/05/06 08:09:13;;;;;;;15.02;8.43;;;13.50;84.80;;;;;;4997099;28;20395;-77
2023/05/06 08:11:41;;;;;;;14.15;8.65;;;13.50;84.70;;;;;;5024319;28;20200;-78
2023/05/06 08:14:08;;;;;;;13.80;8.50;;;13.60;84.70;;;;;;5003347;28;20058;-76
2023/05/06 08:16:35;;;;;;;14.02;8.27;;;13.70;84.70;;;;;;5008696;28;20885;-77
2023/05/06 08:19:02;;;;;;;14.38;8.07;;;13.70;84.60;;;;;;5020251;28;20056;-77
2023/05/06 08:21:29;;;;;;;13.77;8.10;;;13.90;84.50;;;;;;5000266;28;20050;-77
2023/05/06 08:23:56;;;;;;;13.63;7.40;;;13.90;84.50;;;;;;5016195;28;20058;-77
2023/05/06 08:26:23;;;;;;;13.40;7.50;;;14.00;84.20;;;;;;5005747;28;20054;-77
2023/05/06 08:28:51;;;;;;;13.90;7.78;;;14.00;84.00;;;;;;5005283;28;20273;-75
2023/05/06 08:31:18;;;;;;;13.65;8.20;;;14.10;84.00;;;;;;5003851;28;20052;-75
2023/05/06 08:33:45;;;;;;;14.70;8.75;;;14.20;83.90;;;;;;5005155;28;20050;-77
2023/05/06 08:36:12;;;;;;;14.30;8.45;;;14.20;83.90;;;;;;5007336;28;20141;-76
2023/05/06 08:38:39;;;;;;;10.30;6.67;;;14.30;83.90;;;;;;5007512;28;20860;-75
2023/05/06 08:41:09;;;;;;;12.40;6.50;;;14.40;84.00;;;;;;5026452;28;20785;-77
2023/05/06 08:43:41;;;;;;;13.52;7.25;;;14.50;83.50;;;;;;5008300;28;20049;-76
2023/05/06 08:46:09;;;;;;;9.43;5.85;;;14.50;83.30;;;;;;5008071;28;20315;-76
2023/05/06 08:48:36;;;;;;;14.13;6.93;;;14.60;82.60;;;;;;5005832;28;20042;-76
2023/05/06 08:51:04;;;;;;;11.10;6.10;;;14.60;82.20;;;;;;5007690;28;20558;-77
2023/05/06 08:53:33;;;;;;;13.63;7.13;;;14.70;82.20;;;;;;5028324;28;20293;-76
2023/05/06 08:56:02;;;;;;;12.32;6.60;;;14.80;82.00;;;;;;5007331;28;20153;-76
2023/05/06 08:58:32;;;;;;;10.10;5.97;;;14.90;82.20;;;;;;5008021;28;20546;-76
2023/05/06 09:01:00;;;;;;;10.20;6.20;;;14.90;81.60;;;;;;4994828;28;20591;-76
2023/05/06 09:03:28;;;;;;;11.97;7.57;;;15.00;81.50;;;;;;4999974;28;20058;-76
2023/05/06 09:05:57;;;;;;;12.52;6.40;;;15.00;81.40;;;;;;5011439;28;20596;-76
2023/05/06 09:08:24;;;;;;;10.82;5.60;;;15.10;81.10;;;;;;5008290;28;20061;-75
2023/05/06 09:10:51;;;;;;;11.40;6.80;;;15.20;80.70;;;;;;5009188;28;20135;-76
2023/05/06 09:13:19;;;;;;;10.95;5.95;;;15.30;80.20;;;;;;5009764;28;20133;-76
2023/05/06 09:15:47;;;;;;;10.83;6.07;;;15.40;79.90;;;;;;5026477;28;20106;-76
2023/05/06 09:18:15;;;;;;;10.38;5.05;;;15.40;80.00;;;;;;5026400;28;20292;-76
2023/05/06 09:20:46;;;;;;;9.52;4.97;;;15.50;79.80;;;;;;5007975;28;20056;-76
2023/05/06 09:23:17;;;;;;;12.50;5.95;;;15.60;79.10;;;;;;5008155;28;20054;-76
2023/05/06 09:25:45;;;;;;;10.60;5.80;;;15.60;79.00;;;;;;5018100;28;20043;-76
2023/05/06 09:28:13;;;;;;;12.30;7.20;;;15.70;78.30;;;;;;5023445;28;20050;-76
2023/05/06 09:30:42;;;;;;;10.52;6.35;;;15.80;77.90;;;;;;4999136;28;20277;-76
2023/05/06 09:33:09;;;;;;;12.35;7.15;;;15.80;78.10;;;;;;5004396;28;20056;-76
2023/05/06 09:35:38;;;;;;;12.10;6.95;;;15.80;78.00;;;;;;5007502;28;20184;-76
2023/05/06 09:38:07;;;;;;;12.88;7.40;;;16.00;77.80;;;;;;5007435;28;20169;-76
2023/05/06 09:40:35;;;;;;;12.33;7.37;;;16.00;78.10;;;;;;5026598;28;20061;-76
2023/05/06 09:43:02;;;;;;;13.55;7.65;;;16.10;78.60;;;;;;5011344;28;20285;-76
2023/05/06 09:45:30;;;;;;;13.10;7.63;;;16.10;78.60;;;;;;5005186;28;20081;-76
2023/05/06 09:47:58;;;;;;;13.73;8.57;;;16.20;78.70;;;;;;5027159;28;20531;-76
2023/05/06 09:50:25;;;;;;;15.20;8.63;;;16.40;78.20;;;;;;5010818;28;20054;-76
2023/05/06 09:52:52;;;;;;;13.40;7.90;;;16.40;78.30;;;;;;5028549;28;20137;-76
2023/05/06 09:55:25;;;;;;;13.85;7.88;;;16.50;78.50;;;;;;5019733;28;20282;-76
2023/05/06 09:57:53;;;;;;;12.90;7.50;;;16.60;78.10;;;;;;5004169;28;20045;-77
2023/05/06 10:00:26;;;;;;;14.32;8.20;;;16.60;77.60;;;;;;5009625;28;20145;-77
2023/05/06 10:02:55;;;;;;;13.38;7.72;;;16.70;77.70;;;;;;5005097;28;20061;-76
2023/05/06 10:05:24;;;;;;;14.43;7.67;;;16.80;77.80;;;;;;5009166;28;20571;-76
2023/05/06 10:07:52;;;;;;;13.68;7.30;;;16.90;77.10;;;;;;5023939;28;20265;-77
2023/05/06 10:10:22;;;;;;;12.45;6.70;;;17.00;77.10;;;;;;5005223;28;20050;-77
2023/05/06 10:12:50;;;;;;;12.10;6.30;;;17.00;77.40;;;;;;4999801;28;20647;-77
2023/05/06 10:15:17;;;;;;;10.30;5.90;;;17.20;77.00;;;;;;5003742;28;20676;-77
2023/05/06 10:17:46;;;;;;;13.03;7.03;;;17.20;76.60;;;;;;5009253;28;20058;-77
2023/05/06 10:20:14;;;;;;;13.10;7.47;;;17.30;76.10;;;;;;5009002;28;20712;-77
2023/05/06 10:22:48;;;;;;;13.85;8.00;;;17.40;75.70;;;;;;5007387;28;20062;-76
2023/05/06 10:25:26;;;;;;;13.95;8.50;;;17.40;75.60;;;;;;5010233;28;20053;-75
2023/05/06 10:27:55;;;;;;;13.52;8.70;;;17.50;75.40;;;;;;5009485;28;20052;-77
2023/05/06 10:30:23;;;;;;;12.63;8.27;;;17.50;74.70;;;;;;5024482;28;20741;-77
2023/05/06 10:32:56;;;;;;;12.70;7.68;;;17.60;74.30;;;;;;5004085;28;20278;-76
2023/05/06 10:35:40;;;;;;;13.27;7.43;;;17.60;74.40;;;;;;5021304;28;21089;-75
2023/05/06 10:38:12;;;;;;;13.32;7.50;;;17.60;74.50;;;;;;5008436;28;20045;-76
2023/05/06 10:40:40;;;;;;;11.70;7.45;;;17.80;73.30;;;;;;5023276;28;20516;-74
2023/05/06 10:43:26;;;;;;;14.37;8.40;;;17.80;72.60;;;;;;5005222;28;20056;-76
2023/05/06 10:46:01;;;;;;;14.07;7.93;;;17.80;71.80;;;;;;5025254;28;20281;-76
2023/05/06 10:48:28;;;;;;;12.07;6.95;;;17.80;71.50;;;;;;5003409;28;20160;-75
2023/05/06 10:51:24;;;;;;;12.70;8.25;;;17.80;71.50;;;;;;5007034;28;20053;-75
2023/05/06 10:54:03;;;;;;;14.50;8.10;;;17.80;71.50;;;;;;5006227;28;20124;-75
2023/05/06 10:56:31;;;;;;;15.90;8.57;;;17.80;71.30;;;;;;5005258;28;20070;-75
2023/05/06 10:59:06;;;;;;;16.65;9.23;;;17.80;71.10;;;;;;5007501;28;20416;-75
2023/05/06 11:01:34;;;;;;;12.43;7.35;;;17.80;71.30;;;;;;5006125;28;20516;-75
2023/05/06 11:04:08;;;;;;;11.82;7.47;;;17.80;71.20;;;;;;5023513;28;20053;-75
2023/05/06 11:06:41;;;;;;;11.93;7.35;;;17.90;71.00;;;;;;5024223;28;20136;-76
2023/05/06 11:09:16;;;;;;;13.57;7.87;;;17.90;71.20;;;;;;5025576;28;20120;-76
2023/05/06 11:11:47;;;;;;;13.20;8.57;;;18.00;70.80;;;;;;5022291;28;20811;-78
2023/05/06 11:14:27;;;;;;;11.98;7.65;;;18.00;70.50;;;;;;4997944;28;20046;-77
2023/05/06 11:16:56;;;;;;;14.73;8.25;;;18.00;70.50;;;;;;5024919;28;20058;-76
2023/05/06 11:19:24;;;;;;;13.43;9.35;;;18.00;70.70;;;;;;5007494;28;20654;-77
2023/05/06 11:21:56;;;;;;;17.47;9.20;;;18.00;70.80;;;;;;5007583;28;20061;-76
2023/05/06 11:24:26;;;;;;;13.73;8.50;;;18.00;70.70;;;;;;5004474;28;20269;-76
2023/05/06 11:26:54;;;;;;;13.68;8.60;;;18.00;70.40;;;;;;5004572;28;20133;-76
2023/05/06 11:29:22;;;;;;;13.90;8.45;;;18.00;70.50;;;;;;5022663;28;20519;-76
2023/05/06 11:31:51;;;;;;;15.27;9.07;;;18.00;70.70;;;;;;5022942;28;20495;-76
2023/05/06 11:34:22;;;;;;;13.80;8.53;;;18.00;70.80;;;;;;4990137;28;20216;-76
2023/05/06 11:36:53;;;;;;;15.15;8.40;;;18.10;71.40;;;;;;5003930;28;20260;-76
2023/05/06 11:39:20;;;;;;;14.18;8.63;;;18.10;71.70;;;;;;5006203;28;20825;-76
2023/05/06 11:41:47;;;;;;;14.35;7.78;;;18.10;72.10;;;;;;5002863;28;20058;-77
2023/05/06 11:44:26;;;;;;;13.10;8.05;;;18.10;71.90;;;;;;5008014;28;20050;-76
2023/05/06 11:46:56;;;;;;;14.10;8.17;;;18.10;71.80;;;;;;5024805;28;20054;-76
2023/05/06 11:49:25;;;;;;;14.27;8.48;;;18.10;72.00;;;;;;5012113;28;20295;-76
2023/05/06 11:51:52;;;;;;;11.60;7.60;;;18.10;72.50;;;;;;5006506;28;20057;-76
2023/05/06 11:54:21;;;;;;;12.82;8.40;;;18.20;72.60;;;;;;5005337;28;20064;-76
2023/05/06 11:56:53;;;;;;;13.85;8.48;;;18.20;72.70;;;;;;5007852;28;20189;-76
2023/05/06 11:59:29;;;;;;;13.47;8.63;;;18.20;72.70;;;;;;5006197;28;20068;-77
2023/05/06 12:01:58;;;;;;;14.23;7.97;;;18.20;72.50;;;;;;5021576;28;20835;-76
2023/05/06 12:04:25;;;;;;;15.65;9.00;;;18.30;72.50;;;;;;5020567;28;20085;-77
2023/05/06 12:06:54;;;;;;;13.05;8.68;;;18.30;72.40;;;;;;5001940;28;20057;-77
2023/05/06 12:09:22;;;;;;;13.70;8.75;;;18.30;72.30;;;;;;5026064;28;20053;-77
2023/05/06 12:11:49;;;;;;;13.67;8.80;;;18.30;72.20;;;;;;5003931;28;20284;-77
2023/05/06 12:14:17;;;;;;;13.90;8.43;;;18.30;71.80;;;;;;5004634;28;20343;-76
2023/05/06 12:16:46;;;;;;;12.50;7.78;;;18.40;71.70;;;;;;5017505;28;20054;-77
2023/05/06 12:19:16;;;;;;;13.27;7.45;;;18.40;71.60;;;;;;5002560;28;20049;-77
2023/05/06 12:21:43;;;;;;;14.60;7.78;;;18.40;71.30;;;;;;5003438;28;20085;-77
2023/05/06 12:24:11;;;;;;;13.40;8.50;;;18.50;70.00;;;;;;5005806;28;20057;-77
2023/05/06 12:26:46;;;;;;;12.70;8.80;;;18.50;70.20;;;;;;4991321;28;20245;-77
2023/05/06 12:29:16;;;;;;;13.00;8.30;;;18.60;69.10;;;;;;5004826;28;20049;-76
2023/05/06 12:31:45;;;;;;;13.43;8.20;;;18.60;68.90;;;;;;5023521;28;20145;-76
2023/05/06 12:34:15;;;;;;;12.65;8.15;;;18.60;68.40;;;;;;4990265;28;20599;-77
2023/05/06 12:36:43;;;;;;;13.50;9.20;;;18.70;68.20;;;;;;5017460;28;20058;-76
2023/05/06 12:39:11;;;;;;;14.82;9.35;;;18.70;67.20;;;;;;5006592;28;21270;-76
2023/05/06 12:41:41;;;;;;;14.80;9.82;;;18.70;67.00;;;;;;5015434;28;20969;-76
2023/05/06 12:44:35;;;;;;;10.57;7.20;;;18.70;67.00;;;;;;4983885;28;20056;-77
2023/05/06 12:47:04;;;;;;;12.88;7.75;;;18.80;67.90;;;;;;5004814;28;20061;-77
2023/05/06 12:49:52;;;;;;;12.47;7.83;;;18.80;68.00;;;;;;5004309;28;20136;-77